METAR Data
IDs: Format: Raw Decoded Include TAF

Data at: 0343 UTC 06 Dec 2019

METAR for:KMUT (Muscatine Muni, IA, US)
Text:KMUT 060335Z AUTO 00000KT 10SM CLR 04/02 A2995 RMK AO2
Temperature: 4.0°C ( 39°F)
Dewpoint: 2.0°C ( 36°F) [RH = 87%]
Pressure (altimeter):29.95 inches Hg (1014.3 mb)
Winds:calm
Visibility:10 or more sm (16+ km)
Ceiling:at least 12,000 feet AGL
Clouds:sky clear below 12,000 feet AGL
QC Flag:automated observation with no human augmentation